Time;durP1;ratioP1;P1;durP2;ratioP2;P2;SDS_P1;SDS_P2;PMS_P1;PMS_P2;Temp;Humidity;BMP_temperature;BMP_pressure;BME280_temperature;BME280_humidity;BME280_pressure;Samples;Min_cycle;Max_cycle;Signal;HPM_P1;HPM_P2
2023/05/28 00:05:17;;;;;;;13.20;7.60;;;;;;;8.35;83.15;99594.55;273936;1266;22415;-84
2023/05/28 00:11:18;;;;;;;15.20;7.10;;;;;;;8.19;83.40;99597.48;274168;1258;22398;-82
2023/05/28 00:17:20;;;;;;;16.60;8.00;;;;;;;8.05;83.80;99595.18;272606;1266;22528;-81
2023/05/28 00:23:21;;;;;;;14.00;7.50;;;;;;;7.97;83.97;99593.75;272584;1257;22385;-82
2023/05/28 00:29:24;;;;;;;12.30;6.90;;;;;;;7.89;84.25;99583.10;274127;1253;22760;-83
2023/05/28 00:35:25;;;;;;;14.70;7.10;;;;;;;7.87;84.71;99575.17;273881;1267;22558;-81
2023/05/28 00:41:26;;;;;;;12.60;8.00;;;;;;;7.77;84.63;99571.35;273969;1263;22336;-82
2023/05/28 00:47:28;;;;;;;16.90;7.40;;;;;;;7.60;84.74;99563.19;274168;1256;22564;-82
2023/05/28 00:53:28;;;;;;;13.60;6.60;;;;;;;7.50;85.06;99556.47;274112;1261;23770;-82
2023/05/28 00:59:30;;;;;;;15.60;7.40;;;;;;;7.42;85.47;99554.05;272988;1266;22670;-82
2023/05/28 01:05:38;;;;;;;11.60;6.00;;;;;;;7.36;85.74;99556.16;270954;1256;22507;-82
2023/05/28 01:11:43;;;;;;;15.70;7.60;;;;;;;7.23;86.10;99550.78;271886;1253;25354;-82
2023/05/28 01:17:47;;;;;;;15.20;6.60;;;;;;;7.13;86.19;99542.96;273629;1266;22330;-82
2023/05/28 01:23:49;;;;;;;12.00;6.60;;;;;;;7.07;86.41;99543.07;274014;1266;22223;-82
2023/05/28 01:29:50;;;;;;;11.20;6.40;;;;;;;7.04;86.77;99546.14;274078;1263;22331;-81
2023/05/28 01:35:54;;;;;;;10.40;6.10;;;;;;;7.04;87.17;99547.62;273688;1268;22372;-82
2023/05/28 01:41:55;;;;;;;16.50;6.60;;;;;;;7.03;87.65;99540.28;273647;1266;22386;-82
2023/05/28 01:47:57;;;;;;;11.40;5.70;;;;;;;6.95;87.39;99534.02;274136;1256;22199;-81
2023/05/28 01:53:58;;;;;;;10.90;6.40;;;;;;;6.78;87.49;99526.30;274192;1253;22311;-81
2023/05/28 01:59:59;;;;;;;12.80;6.80;;;;;;;6.71;87.66;99525.81;274162;1256;22523;-84
2023/05/28 02:06:00;;;;;;;14.60;7.00;;;;;;;6.66;87.99;99522.23;274011;1266;22226;-83
2023/05/28 02:12:02;;;;;;;13.80;6.50;;;;;;;6.58;87.99;99519.31;274051;1266;23147;-82
2023/05/28 02:18:03;;;;;;;13.50;6.80;;;;;;;6.51;88.38;99522.16;271352;1253;26325;-82
2023/05/28 02:24:06;;;;;;;13.90;6.50;;;;;;;6.47;88.77;99520.55;271394;1262;22544;-82
2023/05/28 02:30:07;;;;;;;13.60;6.20;;;;;;;6.41;89.01;99525.30;273127;1266;22225;-82
2023/05/28 02:36:15;;;;;;;13.00;6.10;;;;;;;6.39;89.61;99524.45;271304;1256;24250;-82
2023/05/28 02:42:16;;;;;;;13.70;6.60;;;;;;;6.36;89.80;99525.35;270158;1257;22545;-82
2023/05/28 02:48:17;;;;;;;10.00;5.90;;;;;;;6.32;90.00;99519.70;270954;1253;23912;-82
2023/05/28 02:54:18;;;;;;;18.40;7.40;;;;;;;6.26;90.35;99517.44;270289;1266;25328;-82
2023/05/28 03:00:19;;;;;;;15.70;7.00;;;;;;;6.25;90.77;99512.14;270026;1260;22553;-81
2023/05/28 03:06:22;;;;;;;14.10;6.90;;;;;;;6.28;90.99;99517.75;270400;1257;23124;-81
2023/05/28 03:12:27;;;;;;;14.10;7.10;;;;;;;6.31;91.37;99517.89;270201;1256;22624;-82
2023/05/28 03:18:34;;;;;;;13.30;6.40;;;;;;;6.32;91.71;99513.81;270519;1253;25229;-81
2023/05/28 03:24:39;;;;;;;16.10;6.80;;;;;;;6.40;92.19;99514.53;269981;1261;22535;-81
2023/05/28 03:30:48;;;;;;;14.90;7.10;;;;;;;6.46;92.25;99507.20;273532;1253;22824;-82
2023/05/28 03:36:49;;;;;;;11.20;5.80;;;;;;;6.50;92.54;99503.08;271164;1257;22690;-82
2023/05/28 03:42:52;;;;;;;11.80;6.10;;;;;;;6.60;92.88;99496.13;271684;1266;22332;-82
2023/05/28 03:48:57;;;;;;;12.60;6.60;;;;;;;6.73;93.58;99500.95;274040;1259;23774;-83
2023/05/28 03:54:59;;;;;;;14.00;6.60;;;;;;;6.89;93.96;99503.41;274099;1254;22473;-81
2023/05/28 04:01:00;;;;;;;14.10;6.70;;;;;;;7.06;94.11;99504.23;272345;1258;22227;-82
2023/05/28 04:07:02;;;;;;;13.50;6.20;;;;;;;7.24;93.02;99505.38;274193;1256;22290;-84
2023/05/28 04:13:03;;;;;;;13.70;5.80;;;;;;;7.47;92.28;99504.98;274149;1257;22428;-82
2023/05/28 04:19:07;;;;;;;12.90;4.90;;;;;;;7.68;91.79;99504.98;274050;1257;22468;-83
2023/05/28 04:25:10;;;;;;;12.30;5.40;;;;;;;7.93;90.94;99502.06;271206;1262;22605;-81
2023/05/28 04:31:11;;;;;;;12.40;5.30;;;;;;;8.17;90.60;99500.00;273349;1266;22180;-83
2023/05/28 04:37:12;;;;;;;9.60;4.90;;;;;;;8.39;90.19;99507.45;271463;1259;23387;-82
2023/05/28 04:43:13;;;;;;;11.50;4.30;;;;;;;8.60;89.99;99508.89;274082;1269;23142;-84
2023/05/28 04:49:17;;;;;;;8.10;4.00;;;;;;;8.82;89.72;99502.68;274083;1256;22317;-85
2023/05/28 04:55:18;;;;;;;7.90;4.20;;;;;;;9.04;88.73;99502.02;273435;1266;22511;-84
2023/05/28 05:01:19;;;;;;;7.80;3.50;;;;;;;9.24;88.03;99499.06;272680;1263;23535;-85
2023/05/28 05:07:22;;;;;;;6.70;3.50;;;;;;;9.43;87.47;99511.00;273204;1267;22218;-83
2023/05/28 05:13:23;;;;;;;11.60;3.80;;;;;;;9.63;86.90;99511.01;273999;1258;22408;-82
2023/05/28 05:19:25;;;;;;;11.50;4.30;;;;;;;9.77;86.10;99507.02;274077;1257;22192;-83
2023/05/28 05:25:27;;;;;;;9.20;4.30;;;;;;;9.95;85.58;99505.33;274148;1266;22814;-82
2023/05/28 05:31:30;;;;;;;7.30;4.10;;;;;;;10.18;85.23;99504.27;274076;1265;22452;-82
2023/05/28 05:37:32;;;;;;;6.40;3.70;;;;;;;10.37;85.13;99502.87;274081;1259;22536;-82
2023/05/28 05:43:58;;;;;;;9.60;3.80;;;;;;;10.62;84.88;99499.43;273546;1266;23048;-83
2023/05/28 05:49:59;;;;;;;12.70;4.10;;;;;;;10.82;84.43;99500.91;274080;1266;22380;-82
2023/05/28 05:56:02;;;;;;;7.60;4.30;;;;;;;10.98;83.81;99497.43;272909;1257;22610;-82
2023/05/28 06:02:04;;;;;;;8.50;4.80;;;;;;;11.10;83.35;99493.80;273037;1256;22347;-83
2023/05/28 06:08:10;;;;;;;7.90;4.50;;;;;;;11.26;83.37;99491.56;273939;1266;22223;-85
2023/05/28 06:14:29;;;;;;;8.30;4.90;;;;;;;11.51;83.10;99490.94;272484;1266;22648;-83
2023/05/28 06:20:30;;;;;;;8.30;4.20;;;;;;;11.73;82.66;99489.89;270620;1259;22713;-82
2023/05/28 06:26:31;;;;;;;9.10;4.80;;;;;;;11.94;81.93;99494.71;273810;1261;22306;-82
2023/05/28 06:32:33;;;;;;;10.20;4.50;;;;;;;12.18;82.04;99493.93;273061;1266;22435;-82
2023/05/28 06:38:35;;;;;;;8.10;4.30;;;;;;;12.47;81.88;99489.50;274065;1266;23557;-82
2023/05/28 06:44:37;;;;;;;7.70;4.00;;;;;;;12.83;81.37;99484.00;274171;1253;22205;-84
2023/05/28 06:50:42;;;;;;;7.70;4.20;;;;;;;13.28;80.94;99482.00;272108;1255;23876;-83
2023/05/28 06:56:43;;;;;;;9.60;4.70;;;;;;;13.73;80.13;99483.48;270677;1257;23258;-84
2023/05/28 07:03:08;;;;;;;7.90;4.10;;;;;;;14.34;79.46;99479.32;272584;1253;22220;-83
2023/05/28 07:09:21;;;;;;;7.90;3.90;;;;;;;14.97;78.69;99475.23;271292;1256;22392;-84
2023/05/28 07:15:22;;;;;;;6.10;3.60;;;;;;;15.53;77.57;99469.28;270630;1255;22589;-84
2023/05/28 07:21:23;;;;;;;7.60;3.60;;;;;;;15.98;76.23;99465.64;272722;1266;22265;-83
2023/05/28 07:27:25;;;;;;;9.50;3.60;;;;;;;16.27;74.91;99463.23;273195;1259;22341;-83
2023/05/28 07:33:27;;;;;;;6.50;3.50;;;;;;;16.52;74.37;99456.04;272247;1254;22542;-83
2023/05/28 07:39:28;;;;;;;5.40;3.50;;;;;;;16.79;73.18;99452.55;273741;1261;22485;-82
2023/05/28 07:45:32;;;;;;;12.70;3.60;;;;;;;17.16;72.37;99453.87;272030;1266;23336;-83
2023/05/28 07:51:34;;;;;;;6.70;3.70;;;;;;;17.47;71.02;99448.48;272923;1263;22543;-83
2023/05/28 07:57:43;;;;;;;10.00;3.60;;;;;;;17.55;69.52;99447.30;273185;1256;22201;-83
2023/05/28 08:03:50;;;;;;;6.00;2.90;;;;;;;17.59;67.77;99441.26;273811;1266;22387;-85
2023/05/28 08:09:52;;;;;;;5.70;2.50;;;;;;;17.70;67.35;99441.70;273108;1266;22479;-83
2023/05/28 08:15:55;;;;;;;9.10;2.90;;;;;;;17.83;65.94;99437.98;273453;1266;22249;-85
2023/05/28 08:21:57;;;;;;;4.70;2.50;;;;;;;18.00;65.36;99433.21;273181;1267;23863;-83
2023/05/28 08:27:58;;;;;;;6.10;3.00;;;;;;;18.08;63.64;99422.82;273358;1266;22509;-84
2023/05/28 08:34:00;;;;;;;7.10;3.00;;;;;;;18.14;62.35;99430.02;273294;1266;22408;-84
2023/05/28 08:40:05;;;;;;;5.50;2.40;;;;;;;17.96;59.44;99428.03;272784;1266;22401;-83
2023/05/28 08:46:18;;;;;;;4.90;2.30;;;;;;;17.99;58.11;99419.20;273284;1262;22208;-84
2023/05/28 08:52:59;;;;;;;4.40;2.10;;;;;;;18.27;58.01;99414.59;273648;1262;23618;-86
2023/05/28 08:59:04;;;;;;;;;;;;;;;18.46;57.13;99411.02;273566;1267;22481;-83
2023/05/28 09:05:58;;;;;;;5.20;2.40;;;;;;;18.53;55.36;99411.02;273866;1259;22581;-83
2023/05/28 09:12:10;;;;;;;3.90;2.10;;;;;;;18.42;53.88;99404.58;273566;1266;22324;-85
2023/05/28 09:18:19;;;;;;;4.70;1.80;;;;;;;18.42;51.91;99394.91;273687;1257;22399;-84
2023/05/28 09:24:22;;;;;;;;;;;;;;;18.74;52.75;99391.75;273406;1257;22414;-84
2023/05/28 09:30:42;;;;;;;3.40;1.60;;;;;;;19.13;51.95;99382.56;273517;1259;22497;-84
2023/05/28 09:36:43;;;;;;;5.70;1.70;;;;;;;19.48;50.82;99374.17;273553;1256;22416;-86
2023/05/28 09:42:45;;;;;;;4.80;1.80;;;;;;;19.90;49.79;99375.03;273087;1266;22445;-84
2023/05/28 09:48:45;;;;;;;5.20;2.60;;;;;;;20.32;49.33;99372.88;273494;1267;22467;-84
2023/05/28 09:54:55;;;;;;;4.90;1.90;;;;;;;20.85;49.41;99364.81;273350;1266;22822;-85
2023/05/28 10:00:59;;;;;;;3.40;1.80;;;;;;;21.11;47.90;99362.34;273514;1266;115366;-84
2023/05/28 10:07:03;;;;;;;2.50;1.60;;;;;;;21.34;47.23;99357.86;273771;1267;22423;-85
2023/05/28 10:13:04;;;;;;;5.30;2.00;;;;;;;21.38;46.04;99353.70;273538;1266;22432;-85
2023/05/28 10:19:06;;;;;;;6.70;2.10;;;;;;;21.30;44.86;99348.43;273881;1266;22300;-85
2023/05/28 10:25:52;;;;;;;5.10;2.20;;;;;;;21.48;45.19;99342.59;273763;1269;22367;-83
2023/05/28 10:31:59;;;;;;;7.60;2.10;;;;;;;21.67;44.98;99342.92;273726;1266;24248;-83
2023/05/28 10:38:22;;;;;;;2.90;2.00;;;;;;;21.87;44.46;99343.42;273822;1266;22371;-84
2023/05/28 10:44:23;;;;;;;3.80;2.10;;;;;;;21.96;44.49;99340.53;273876;1256;22194;-84
2023/05/28 10:51:01;;;;;;;3.80;2.20;;;;;;;22.12;43.77;99341.73;273700;1266;22515;-85
2023/05/28 10:57:27;;;;;;;3.50;2.00;;;;;;;22.28;43.90;99339.11;273612;1267;22474;-84
2023/05/28 11:03:41;;;;;;;6.60;2.20;;;;;;;22.67;43.77;99339.52;273666;1266;22472;-83
2023/05/28 11:10:23;;;;;;;6.60;2.20;;;;;;;22.63;42.70;99332.83;272866;1266;22507;-85
2023/05/28 11:16:31;;;;;;;3.90;2.20;;;;;;;22.66;42.98;99326.13;273360;1266;22567;-85
2023/05/28 11:22:52;;;;;;;6.90;2.30;;;;;;;23.05;42.77;99318.02;272619;1266;22616;-85
2023/05/28 11:28:53;;;;;;;6.10;2.10;;;;;;;23.43;41.93;99316.80;273641;1267;22359;-84
2023/05/28 11:34:55;;;;;;;3.80;1.90;;;;;;;23.81;41.69;99315.16;273629;1266;22531;-85
2023/05/28 11:41:01;;;;;;;7.40;1.70;;;;;;;24.03;41.04;99313.05;273272;1266;22416;-85
2023/05/28 11:47:02;;;;;;;5.90;2.20;;;;;;;24.09;40.65;99311.41;273772;1266;22137;-84
2023/05/28 11:53:03;;;;;;;4.90;1.80;;;;;;;24.08;40.11;99306.02;273242;1266;22578;-83
2023/05/28 11:59:04;;;;;;;4.80;1.90;;;;;;;24.19;39.65;99296.23;272818;1266;22328;-84
2023/05/28 12:05:05;;;;;;;3.50;2.10;;;;;;;23.90;39.47;99296.95;273980;1257;22336;-84
2023/05/28 12:11:08;;;;;;;7.00;2.40;;;;;;;23.72;39.27;99289.73;273863;1256;22324;-84
2023/05/28 12:17:10;;;;;;;4.90;1.50;;;;;;;23.38;38.71;99288.52;273755;1267;22866;-83
2023/05/28 12:23:12;;;;;;;5.50;2.10;;;;;;;22.90;39.03;99285.45;272991;1265;22584;-84
2023/05/28 12:29:13;;;;;;;5.00;2.30;;;;;;;22.58;38.69;99290.00;273868;1267;22448;-84
2023/05/28 12:35:16;;;;;;;10.00;4.30;;;;;;;22.29;38.98;99292.77;273938;1257;22429;-84
2023/05/28 12:41:17;;;;;;;8.80;5.00;;;;;;;22.22;39.32;99283.84;274141;1269;23091;-85
2023/05/28 12:47:20;;;;;;;4.10;1.80;;;;;;;22.18;39.20;99280.85;272689;1261;22520;-85
2023/05/28 12:53:22;;;;;;;11.20;6.40;;;;;;;22.03;39.33;99277.35;270307;1267;22535;-84
2023/05/28 12:59:25;;;;;;;12.30;3.30;;;;;;;22.02;39.72;99270.42;272465;1266;22438;-83
2023/05/28 13:05:27;;;;;;;3.80;2.10;;;;;;;22.04;39.80;99268.05;273748;1266;22315;-84
2023/05/28 13:11:40;;;;;;;4.30;2.50;;;;;;;21.99;39.97;99262.65;273943;1266;22413;-84
2023/05/28 13:17:41;;;;;;;7.10;2.00;;;;;;;21.89;40.18;99265.82;274222;1266;22317;-84
2023/05/28 13:23:42;;;;;;;6.50;2.20;;;;;;;21.79;39.85;99261.56;271872;1267;22958;-83
2023/05/28 13:29:43;;;;;;;3.70;2.10;;;;;;;21.72;40.08;99254.60;270889;1266;22578;-84
2023/05/28 13:35:44;;;;;;;4.10;2.30;;;;;;;21.63;39.81;99250.17;272798;1263;22474;-84
2023/05/28 13:41:45;;;;;;;7.30;2.90;;;;;;;21.51;39.55;99244.08;274006;1267;22318;-83
2023/05/28 13:47:46;;;;;;;4.90;2.40;;;;;;;21.50;39.29;99240.91;274248;1266;22431;-84
2023/05/28 13:53:47;;;;;;;6.50;2.50;;;;;;;21.37;39.38;99235.80;274237;1256;22394;-83
2023/05/28 14:00:10;;;;;;;7.10;4.00;;;;;;;21.33;39.22;99232.82;273976;1267;22352;-85
2023/05/28 14:06:13;;;;;;;6.80;2.80;;;;;;;21.50;39.38;99225.96;274157;1266;22401;-84
2023/05/28 14:12:34;;;;;;;5.20;1.90;;;;;;;21.62;39.35;99213.73;272699;1263;22565;-85
2023/05/28 14:18:35;;;;;;;5.50;2.40;;;;;;;21.60;39.22;99210.45;270627;1267;22556;-83
2023/05/28 14:24:36;;;;;;;5.30;1.60;;;;;;;21.56;39.04;99207.31;271725;1263;22524;-84
2023/05/28 14:30:39;;;;;;;6.30;1.90;;;;;;;21.33;38.71;99203.84;270569;1267;23369;-85
2023/05/28 14:36:40;;;;;;;4.20;1.80;;;;;;;21.15;38.56;99203.27;270911;1254;23307;-85
2023/05/28 14:42:41;;;;;;;7.60;1.90;;;;;;;21.07;38.59;99199.45;270716;1267;22627;-84
2023/05/28 14:48:42;;;;;;;2.90;2.20;;;;;;;21.10;39.24;99193.46;271018;1266;23101;-85
2023/05/28 14:54:43;;;;;;;4.20;1.70;;;;;;;21.14;39.62;99197.26;274199;1267;23311;-84
2023/05/28 15:00:44;;;;;;;2.70;1.60;;;;;;;20.97;39.57;99193.24;273283;1266;22544;-84
2023/05/28 15:06:45;;;;;;;5.50;2.00;;;;;;;20.95;39.99;99196.41;273585;1266;22309;-86
2023/05/28 15:12:46;;;;;;;4.20;1.60;;;;;;;20.94;40.01;99194.12;274217;1265;22320;-86
2023/05/28 15:18:47;;;;;;;8.90;2.20;;;;;;;20.86;40.38;99190.29;274212;1264;22372;-85
2023/05/28 15:24:49;;;;;;;4.90;1.60;;;;;;;20.81;40.78;99185.66;274244;1267;22389;-85
2023/05/28 15:30:50;;;;;;;3.10;1.60;;;;;;;20.71;40.96;99185.05;272959;1267;22542;-84
2023/05/28 15:36:51;;;;;;;5.70;1.90;;;;;;;20.51;41.02;99185.42;272376;1254;22199;-85
2023/05/28 15:42:54;;;;;;;4.80;2.00;;;;;;;20.38;41.13;99184.10;273809;1266;22216;-84
2023/05/28 15:48:56;;;;;;;2.90;1.60;;;;;;;20.28;41.27;99183.95;274123;1266;22399;-85
2023/05/28 15:54:57;;;;;;;2.60;1.50;;;;;;;20.17;41.48;99178.80;273514;1266;22370;-85
2023/05/28 16:00:58;;;;;;;8.30;2.10;;;;;;;20.07;42.24;99178.71;271171;1265;23221;-85
2023/05/28 16:06:59;;;;;;;2.70;1.40;;;;;;;19.98;42.65;99174.70;273509;1254;22237;-86
2023/05/28 16:13:07;;;;;;;6.10;2.10;;;;;;;19.87;42.94;99179.75;273217;1266;22524;-84
2023/05/28 16:19:08;;;;;;;4.60;1.90;;;;;;;19.80;43.16;99179.05;271822;1267;23043;-84
2023/05/28 16:25:33;;;;;;;5.00;2.10;;;;;;;19.68;43.19;99178.59;274063;1265;22458;-85
2023/05/28 16:31:36;;;;;;;2.90;1.60;;;;;;;19.55;43.48;99177.15;273931;1266;22336;-84
2023/05/28 16:37:37;;;;;;;3.80;1.90;;;;;;;19.43;43.52;99180.34;273985;1266;22464;-84
2023/05/28 16:43:38;;;;;;;4.30;1.80;;;;;;;19.32;43.70;99181.67;271773;1251;22657;-84
2023/05/28 16:49:39;;;;;;;3.50;1.70;;;;;;;19.25;44.04;99182.38;271469;1266;23040;-83
2023/05/28 16:55:41;;;;;;;5.90;2.30;;;;;;;19.17;44.27;99180.47;264991;1267;10001218;-84
2023/05/28 17:01:46;;;;;;;6.20;1.80;;;;;;;19.08;44.75;99182.71;274118;1267;22218;-84
2023/05/28 17:08:07;;;;;;;4.90;2.00;;;;;;;19.00;45.10;99186.84;273889;1253;22441;-84
2023/05/28 17:14:08;;;;;;;9.30;4.40;;;;;;;18.87;45.49;99185.59;273262;1260;22555;-84
2023/05/28 17:20:11;;;;;;;11.10;4.40;;;;;;;18.75;45.57;99187.79;273607;1266;22497;-84
2023/05/28 17:26:13;;;;;;;5.40;2.90;;;;;;;18.63;45.71;99184.22;272746;1266;22424;-83
2023/05/28 17:32:14;;;;;;;7.30;2.70;;;;;;;18.49;46.06;99184.56;273477;1266;22401;-83
2023/05/28 17:38:15;;;;;;;2.90;1.70;;;;;;;18.33;46.25;99178.88;271636;1264;22574;-83
2023/05/28 17:44:17;;;;;;;3.90;1.80;;;;;;;18.17;46.50;99176.28;274114;1260;22509;-84
2023/05/28 17:50:19;;;;;;;5.70;1.80;;;;;;;18.03;46.98;99177.46;272733;1266;23243;-84
2023/05/28 17:56:32;;;;;;;7.00;2.90;;;;;;;17.88;47.31;99173.50;274049;1255;23284;-84
2023/05/28 18:02:34;;;;;;;6.10;3.50;;;;;;;17.71;47.64;99176.83;273891;1266;22258;-83
2023/05/28 18:08:35;;;;;;;5.10;2.20;;;;;;;17.55;48.04;99179.05;274037;1266;22327;-83
2023/05/28 18:14:36;;;;;;;3.80;1.70;;;;;;;17.36;48.40;99181.80;274057;1266;22337;-84
2023/05/28 18:20:38;;;;;;;5.30;1.90;;;;;;;17.16;49.07;99186.50;274018;1266;22337;-84
2023/05/28 18:26:40;;;;;;;6.00;2.80;;;;;;;16.92;49.47;99186.92;272627;1266;22433;-83
2023/05/28 18:32:42;;;;;;;6.90;2.80;;;;;;;16.67;50.16;99189.10;274119;1266;22222;-83
2023/05/28 18:38:43;;;;;;;6.60;2.30;;;;;;;16.45;51.30;99193.90;274097;1266;23344;-83
2023/05/28 18:44:44;;;;;;;4.10;2.20;;;;;;;16.21;52.23;99192.89;274038;1265;22410;-83
2023/05/28 18:50:45;;;;;;;4.50;2.30;;;;;;;15.96;53.47;99198.06;274046;1266;22341;-83
2023/05/28 18:56:47;;;;;;;6.30;2.60;;;;;;;15.78;54.35;99203.07;274142;1266;22211;-83
2023/05/28 19:02:49;;;;;;;5.60;2.30;;;;;;;15.57;56.42;99207.54;274041;1265;22388;-83
2023/05/28 19:08:50;;;;;;;7.10;2.20;;;;;;;15.33;56.37;99214.34;274041;1258;22320;-83
2023/05/28 19:14:51;;;;;;;9.00;2.50;;;;;;;15.12;57.00;99210.40;273962;1265;22420;-83
2023/05/28 19:20:52;;;;;;;10.30;3.80;;;;;;;14.94;58.00;99214.15;273710;1267;22389;-83
2023/05/28 19:26:56;;;;;;;8.60;3.20;;;;;;;14.70;58.26;99220.98;274022;1266;22420;-83
2023/05/28 19:33:38;;;;;;;5.00;2.80;;;;;;;14.43;60.47;99224.56;272659;1266;23264;-83
2023/05/28 19:40:00;;;;;;;7.70;3.40;;;;;;;14.22;62.42;99224.88;273903;1266;22431;-83
2023/05/28 19:46:21;;;;;;;6.90;3.80;;;;;;;14.11;62.87;99227.13;274016;1254;22312;-83
2023/05/28 19:52:23;;;;;;;7.00;3.20;;;;;;;13.92;63.69;99233.96;273969;1266;22465;-83
2023/05/28 19:58:24;;;;;;;13.20;6.00;;;;;;;13.73;64.81;99235.26;273981;1250;22302;-83
2023/05/28 20:04:25;;;;;;;13.50;5.80;;;;;;;13.57;65.75;99235.23;274023;1266;22316;-83
2023/05/28 20:10:27;;;;;;;12.40;6.20;;;;;;;13.38;65.57;99240.02;273938;1266;22362;-84
2023/05/28 20:16:29;;;;;;;16.10;5.70;;;;;;;13.22;65.63;99245.85;273893;1257;22411;-83
2023/05/28 20:22:30;;;;;;;11.10;6.00;;;;;;;13.08;67.52;99248.45;273869;1266;22381;-83
2023/05/28 20:28:31;;;;;;;12.70;6.50;;;;;;;12.91;67.67;99246.13;273804;1266;22487;-84
2023/05/28 20:34:36;;;;;;;10.70;6.30;;;;;;;12.75;67.73;99253.41;273828;1267;22414;-83
2023/05/28 20:40:38;;;;;;;10.20;5.50;;;;;;;12.56;67.85;99257.20;273982;1266;23425;-83
2023/05/28 20:47:20;;;;;;;10.50;5.80;;;;;;;12.40;68.34;99255.04;274058;1256;22448;-83
2023/05/28 20:53:23;;;;;;;9.60;6.30;;;;;;;12.27;69.49;99255.95;274049;1266;22168;-84
2023/05/28 20:59:26;;;;;;;13.10;6.20;;;;;;;12.11;69.76;99252.52;274124;1253;22477;-83
2023/05/28 21:05:30;;;;;;;13.30;6.10;;;;;;;11.98;70.78;99256.00;274156;1253;23035;-83
2023/05/28 21:11:32;;;;;;;12.10;5.70;;;;;;;11.86;70.98;99255.25;274123;1263;22336;-83
2023/05/28 21:17:32;;;;;;;12.30;7.20;;;;;;;11.75;72.18;99256.71;274194;1266;22479;-83
2023/05/28 21:24:14;;;;;;;13.20;6.60;;;;;;;11.61;73.20;99258.51;272359;1253;22350;-83
2023/05/28 21:30:35;;;;;;;11.50;6.60;;;;;;;11.50;74.45;99257.50;271017;1266;22574;-82
2023/05/28 21:36:36;;;;;;;9.80;6.10;;;;;;;11.40;74.61;99251.73;270213;1266;22553;-83
2023/05/28 21:42:37;;;;;;;11.70;6.50;;;;;;;11.27;75.48;99254.16;272476;1254;22336;-84
2023/05/28 21:48:38;;;;;;;11.00;7.00;;;;;;;11.14;75.37;99256.67;273964;1266;22211;-84
2023/05/28 21:54:59;;;;;;;15.00;7.20;;;;;;;11.00;76.29;99256.25;274133;1252;22341;-82
2023/05/28 22:01:00;;;;;;;12.30;6.70;;;;;;;10.89;76.52;99259.55;271007;1266;22571;-83
2023/05/28 22:07:01;;;;;;;17.60;8.20;;;;;;;10.81;77.25;99254.97;270985;1251;22532;-83
2023/05/28 22:13:24;;;;;;;16.30;8.40;;;;;;;10.70;77.27;99251.98;271547;1266;22228;-83
2023/05/28 22:19:25;;;;;;;13.40;7.80;;;;;;;10.60;77.72;99245.59;273090;1262;22291;-84
2023/05/28 22:25:26;;;;;;;15.30;8.30;;;;;;;10.51;78.43;99243.73;274259;1261;22297;-83
2023/05/28 22:31:47;;;;;;;12.60;8.80;;;;;;;10.41;79.35;99246.06;274173;1266;22306;-82
2023/05/28 22:37:48;;;;;;;16.10;8.00;;;;;;;10.30;79.89;99245.27;274021;1266;22428;-83
2023/05/28 22:44:30;;;;;;;15.80;8.30;;;;;;;10.20;80.18;99240.89;272974;1254;22436;-83
2023/05/28 22:51:12;;;;;;;14.20;7.90;;;;;;;10.07;80.54;99242.84;271723;1260;22618;-83
2023/05/28 22:57:33;;;;;;;15.30;8.20;;;;;;;10.00;80.91;99243.48;272616;1254;22411;-84
2023/05/28 23:03:34;;;;;;;17.50;7.70;;;;;;;9.88;81.16;99242.89;270210;1266;23458;-83
2023/05/28 23:09:35;;;;;;;14.90;8.00;;;;;;;9.76;81.98;99243.54;270350;1265;23443;-82
2023/05/28 23:15:36;;;;;;;14.60;8.00;;;;;;;9.68;82.18;99240.95;270428;1267;22581;-83
2023/05/28 23:21:57;;;;;;;13.50;7.80;;;;;;;9.61;83.14;99237.79;271157;1266;22538;-82
2023/05/28 23:27:58;;;;;;;12.20;7.20;;;;;;;9.57;83.88;99239.20;272760;1266;23682;-84
2023/05/28 23:34:20;;;;;;;12.20;7.50;;;;;;;9.55;84.25;99241.02;272422;1263;22646;-82
2023/05/28 23:40:42;;;;;;;16.80;8.40;;;;;;;9.49;84.17;99237.64;274214;1263;22311;-82
2023/05/28 23:46:44;;;;;;;11.80;6.80;;;;;;;9.42;84.64;99237.43;274133;1265;22287;-83
2023/05/28 23:52:45;;;;;;;14.40;7.90;;;;;;;9.34;84.96;99235.88;274116;1254;23118;-82
2023/05/28 23:58:46;;;;;;;12.20;7.10;;;;;;;9.25;85.08;99238.74;274345;1253;22671;-84
